sensor_id;sensor_type;location;lat;lon;timestamp;P1;durP1;ratioP1;P2;durP2;ratioP2
51738;SDS011;37815;52.692;6.226;2022-08-20T00:01:33;2.25;;;2.00;;
51738;SDS011;37815;52.692;6.226;2022-08-20T00:06:33;2.90;;;2.00;;
51738;SDS011;37815;52.692;6.226;2022-08-20T00:11:34;2.85;;;1.80;;
51738;SDS011;37815;52.692;6.226;2022-08-20T00:16:36;3.35;;;2.03;;
51738;SDS011;37815;52.692;6.226;2022-08-20T00:21:36;4.30;;;1.80;;
51738;SDS011;37815;52.692;6.226;2022-08-20T00:26:37;2.45;;;2.15;;
51738;SDS011;37815;52.692;6.226;2022-08-20T00:31:38;1.98;;;1.75;;
51738;SDS011;37815;52.692;6.226;2022-08-20T00:36:38;2.08;;;1.70;;
51738;SDS011;37815;52.692;6.226;2022-08-20T00:41:39;3.50;;;2.00;;
51738;SDS011;37815;52.692;6.226;2022-08-20T00:46:41;3.08;;;2.15;;
51738;SDS011;37815;52.692;6.226;2022-08-20T00:51:45;3.17;;;1.88;;
51738;SDS011;37815;52.692;6.226;2022-08-20T00:56:50;3.92;;;2.05;;
51738;SDS011;37815;52.692;6.226;2022-08-20T01:01:55;2.85;;;2.20;;
51738;SDS011;37815;52.692;6.226;2022-08-20T01:06:56;4.40;;;2.30;;
51738;SDS011;37815;52.692;6.226;2022-08-20T01:11:57;2.30;;;1.90;;
51738;SDS011;37815;52.692;6.226;2022-08-20T01:16:59;3.40;;;2.13;;
51738;SDS011;37815;52.692;6.226;2022-08-20T01:22:02;2.50;;;1.88;;
51738;SDS011;37815;52.692;6.226;2022-08-20T01:27:23;4.68;;;2.22;;
51738;SDS011;37815;52.692;6.226;2022-08-20T01:32:24;2.78;;;2.33;;
51738;SDS011;37815;52.692;6.226;2022-08-20T01:37:25;3.15;;;2.15;;
51738;SDS011;37815;52.692;6.226;2022-08-20T01:42:26;2.05;;;1.85;;
51738;SDS011;37815;52.692;6.226;2022-08-20T01:47:36;2.83;;;2.10;;
51738;SDS011;37815;52.692;6.226;2022-08-20T01:57:59;3.58;;;2.20;;
51738;SDS011;37815;52.692;6.226;2022-08-20T02:03:01;3.40;;;2.22;;
51738;SDS011;37815;52.692;6.226;2022-08-20T02:08:03;3.30;;;2.17;;
51738;SDS011;37815;52.692;6.226;2022-08-20T02:13:04;3.40;;;2.00;;
51738;SDS011;37815;52.692;6.226;2022-08-20T02:18:10;3.10;;;1.98;;
51738;SDS011;37815;52.692;6.226;2022-08-20T02:23:12;3.17;;;2.20;;
51738;SDS011;37815;52.692;6.226;2022-08-20T02:28:15;2.80;;;2.08;;
51738;SDS011;37815;52.692;6.226;2022-08-20T02:33:19;2.85;;;1.88;;
51738;SDS011;37815;52.692;6.226;2022-08-20T02:38:22;2.58;;;2.00;;
51738;SDS011;37815;52.692;6.226;2022-08-20T02:43:23;2.42;;;2.15;;
51738;SDS011;37815;52.692;6.226;2022-08-20T02:48:25;3.63;;;2.10;;
51738;SDS011;37815;52.692;6.226;2022-08-20T02:53:27;3.92;;;2.38;;
51738;SDS011;37815;52.692;6.226;2022-08-20T02:58:32;3.53;;;2.30;;
51738;SDS011;37815;52.692;6.226;2022-08-20T03:03:34;3.88;;;2.45;;
51738;SDS011;37815;52.692;6.226;2022-08-20T03:08:35;3.85;;;2.15;;
51738;SDS011;37815;52.692;6.226;2022-08-20T03:13:36;4.13;;;2.20;;
51738;SDS011;37815;52.692;6.226;2022-08-20T03:18:42;4.25;;;2.05;;
51738;SDS011;37815;52.692;6.226;2022-08-20T03:23:44;2.40;;;2.20;;
51738;SDS011;37815;52.692;6.226;2022-08-20T03:28:45;4.28;;;2.50;;
51738;SDS011;37815;52.692;6.226;2022-08-20T03:33:46;3.78;;;2.25;;
51738;SDS011;37815;52.692;6.226;2022-08-20T03:38:47;3.63;;;2.58;;
51738;SDS011;37815;52.692;6.226;2022-08-20T03:43:48;3.35;;;2.30;;
51738;SDS011;37815;52.692;6.226;2022-08-20T03:48:50;2.88;;;1.80;;
51738;SDS011;37815;52.692;6.226;2022-08-20T03:53:52;3.25;;;2.20;;
51738;SDS011;37815;52.692;6.226;2022-08-20T03:58:53;2.45;;;2.00;;
51738;SDS011;37815;52.692;6.226;2022-08-20T04:03:54;3.25;;;2.30;;
51738;SDS011;37815;52.692;6.226;2022-08-20T04:08:57;4.63;;;2.30;;
51738;SDS011;37815;52.692;6.226;2022-08-20T04:13:58;4.55;;;2.40;;
51738;SDS011;37815;52.692;6.226;2022-08-20T04:18:59;3.05;;;2.10;;
51738;SDS011;37815;52.692;6.226;2022-08-20T04:24:01;4.50;;;2.42;;
51738;SDS011;37815;52.692;6.226;2022-08-20T04:29:03;3.83;;;2.15;;
51738;SDS011;37815;52.692;6.226;2022-08-20T04:34:04;2.35;;;1.95;;
51738;SDS011;37815;52.692;6.226;2022-08-20T04:39:08;3.17;;;2.00;;
51738;SDS011;37815;52.692;6.226;2022-08-20T04:44:09;4.75;;;2.60;;
51738;SDS011;37815;52.692;6.226;2022-08-20T04:49:10;2.70;;;2.00;;
51738;SDS011;37815;52.692;6.226;2022-08-20T04:54:11;2.40;;;1.92;;
51738;SDS011;37815;52.692;6.226;2022-08-20T04:59:13;4.05;;;2.15;;
51738;SDS011;37815;52.692;6.226;2022-08-20T05:04:14;4.10;;;2.03;;
51738;SDS011;37815;52.692;6.226;2022-08-20T05:09:15;3.72;;;2.00;;
51738;SDS011;37815;52.692;6.226;2022-08-20T05:14:15;3.22;;;1.88;;
51738;SDS011;37815;52.692;6.226;2022-08-20T05:19:16;4.47;;;2.10;;
51738;SDS011;37815;52.692;6.226;2022-08-20T05:24:17;5.10;;;1.98;;
51738;SDS011;37815;52.692;6.226;2022-08-20T05:29:20;4.38;;;2.13;;
51738;SDS011;37815;52.692;6.226;2022-08-20T05:34:22;5.90;;;1.90;;
51738;SDS011;37815;52.692;6.226;2022-08-20T05:39:23;3.80;;;2.47;;
51738;SDS011;37815;52.692;6.226;2022-08-20T05:44:24;2.70;;;1.80;;
51738;SDS011;37815;52.692;6.226;2022-08-20T05:49:25;5.18;;;1.90;;
51738;SDS011;37815;52.692;6.226;2022-08-20T05:54:25;2.78;;;1.98;;
51738;SDS011;37815;52.692;6.226;2022-08-20T05:59:26;3.92;;;2.10;;
51738;SDS011;37815;52.692;6.226;2022-08-20T06:04:27;2.75;;;1.70;;
51738;SDS011;37815;52.692;6.226;2022-08-20T06:09:31;4.28;;;2.72;;
51738;SDS011;37815;52.692;6.226;2022-08-20T06:14:32;2.78;;;1.80;;
51738;SDS011;37815;52.692;6.226;2022-08-20T06:19:34;2.65;;;1.55;;
51738;SDS011;37815;52.692;6.226;2022-08-20T06:24:35;2.95;;;2.00;;
51738;SDS011;37815;52.692;6.226;2022-08-20T06:29:36;2.92;;;1.80;;
51738;SDS011;37815;52.692;6.226;2022-08-20T06:34:37;4.38;;;2.10;;
51738;SDS011;37815;52.692;6.226;2022-08-20T06:39:37;2.92;;;1.40;;
51738;SDS011;37815;52.692;6.226;2022-08-20T06:44:38;3.40;;;1.90;;
51738;SDS011;37815;52.692;6.226;2022-08-20T06:49:39;3.55;;;1.85;;
51738;SDS011;37815;52.692;6.226;2022-08-20T06:54:40;1.88;;;1.42;;
51738;SDS011;37815;52.692;6.226;2022-08-20T06:59:40;4.43;;;1.80;;
51738;SDS011;37815;52.692;6.226;2022-08-20T07:04:41;5.22;;;1.70;;
51738;SDS011;37815;52.692;6.226;2022-08-20T07:09:42;3.17;;;1.50;;
51738;SDS011;37815;52.692;6.226;2022-08-20T07:14:42;1.45;;;1.23;;
51738;SDS011;37815;52.692;6.226;2022-08-20T07:19:43;3.88;;;1.60;;
51738;SDS011;37815;52.692;6.226;2022-08-20T07:24:44;3.63;;;1.33;;
51738;SDS011;37815;52.692;6.226;2022-08-20T07:29:45;4.13;;;1.50;;
51738;SDS011;37815;52.692;6.226;2022-08-20T07:35:06;2.60;;;1.52;;
51738;SDS011;37815;52.692;6.226;2022-08-20T07:40:13;2.90;;;1.30;;
51738;SDS011;37815;52.692;6.226;2022-08-20T07:45:16;4.67;;;1.37;;
51738;SDS011;37815;52.692;6.226;2022-08-20T07:50:24;1.95;;;1.30;;
51738;SDS011;37815;52.692;6.226;2022-08-20T07:55:25;2.97;;;1.50;;
51738;SDS011;37815;52.692;6.226;2022-08-20T08:00:27;3.55;;;1.40;;
51738;SDS011;37815;52.692;6.226;2022-08-20T08:05:28;2.53;;;1.10;;
51738;SDS011;37815;52.692;6.226;2022-08-20T08:10:31;2.83;;;1.05;;
51738;SDS011;37815;52.692;6.226;2022-08-20T08:15:35;3.72;;;1.15;;
51738;SDS011;37815;52.692;6.226;2022-08-20T08:20:40;1.77;;;1.05;;
51738;SDS011;37815;52.692;6.226;2022-08-20T08:25:43;2.25;;;1.23;;
51738;SDS011;37815;52.692;6.226;2022-08-20T08:30:45;4.20;;;1.13;;
51738;SDS011;37815;52.692;6.226;2022-08-20T08:35:47;2.95;;;0.95;;
51738;SDS011;37815;52.692;6.226;2022-08-20T08:40:49;3.42;;;0.90;;
51738;SDS011;37815;52.692;6.226;2022-08-20T08:46:06;3.10;;;0.90;;
51738;SDS011;37815;52.692;6.226;2022-08-20T08:51:11;2.05;;;1.30;;
51738;SDS011;37815;52.692;6.226;2022-08-20T08:56:15;3.35;;;1.08;;
51738;SDS011;37815;52.692;6.226;2022-08-20T09:01:17;2.50;;;1.10;;
51738;SDS011;37815;52.692;6.226;2022-08-20T09:06:22;2.55;;;0.90;;
51738;SDS011;37815;52.692;6.226;2022-08-20T09:11:24;2.47;;;1.10;;
51738;SDS011;37815;52.692;6.226;2022-08-20T09:16:26;1.65;;;0.73;;
51738;SDS011;37815;52.692;6.226;2022-08-20T09:21:27;2.97;;;1.20;;
51738;SDS011;37815;52.692;6.226;2022-08-20T09:26:29;0.90;;;0.80;;
51738;SDS011;37815;52.692;6.226;2022-08-20T09:31:30;2.08;;;1.00;;
51738;SDS011;37815;52.692;6.226;2022-08-20T09:36:30;2.08;;;1.30;;
51738;SDS011;37815;52.692;6.226;2022-08-20T09:41:32;3.58;;;0.93;;
51738;SDS011;37815;52.692;6.226;2022-08-20T09:46:33;2.05;;;1.10;;
51738;SDS011;37815;52.692;6.226;2022-08-20T09:51:33;1.88;;;1.15;;
51738;SDS011;37815;52.692;6.226;2022-08-20T09:56:34;5.00;;;1.30;;
51738;SDS011;37815;52.692;6.226;2022-08-20T10:01:38;1.55;;;0.90;;
51738;SDS011;37815;52.692;6.226;2022-08-20T10:06:39;3.63;;;1.00;;
51738;SDS011;37815;52.692;6.226;2022-08-20T10:11:41;1.38;;;1.08;;
51738;SDS011;37815;52.692;6.226;2022-08-20T10:16:42;3.03;;;0.98;;
51738;SDS011;37815;52.692;6.226;2022-08-20T10:21:42;2.65;;;0.95;;
51738;SDS011;37815;52.692;6.226;2022-08-20T10:26:43;2.90;;;1.02;;
51738;SDS011;37815;52.692;6.226;2022-08-20T10:31:44;1.75;;;1.00;;
51738;SDS011;37815;52.692;6.226;2022-08-20T10:36:45;2.28;;;0.75;;
51738;SDS011;37815;52.692;6.226;2022-08-20T10:41:46;2.83;;;1.23;;
51738;SDS011;37815;52.692;6.226;2022-08-20T10:46:47;1.25;;;0.73;;
51738;SDS011;37815;52.692;6.226;2022-08-20T10:51:47;3.05;;;0.88;;
51738;SDS011;37815;52.692;6.226;2022-08-20T10:56:48;5.35;;;0.90;;
51738;SDS011;37815;52.692;6.226;2022-08-20T11:01:49;3.35;;;0.95;;
51738;SDS011;37815;52.692;6.226;2022-08-20T11:06:50;2.15;;;0.75;;
51738;SDS011;37815;52.692;6.226;2022-08-20T11:11:50;2.75;;;1.08;;
51738;SDS011;37815;52.692;6.226;2022-08-20T11:16:51;3.50;;;1.08;;
51738;SDS011;37815;52.692;6.226;2022-08-20T11:21:52;4.22;;;1.92;;
51738;SDS011;37815;52.692;6.226;2022-08-20T11:26:53;5.55;;;1.70;;
51738;SDS011;37815;52.692;6.226;2022-08-20T11:31:54;5.50;;;1.40;;
51738;SDS011;37815;52.692;6.226;2022-08-20T11:36:54;2.97;;;0.95;;
51738;SDS011;37815;52.692;6.226;2022-08-20T11:41:58;3.90;;;1.27;;
51738;SDS011;37815;52.692;6.226;2022-08-20T11:46:59;2.60;;;1.25;;
51738;SDS011;37815;52.692;6.226;2022-08-20T11:52:04;2.63;;;0.90;;
51738;SDS011;37815;52.692;6.226;2022-08-20T11:57:05;4.85;;;1.15;;
51738;SDS011;37815;52.692;6.226;2022-08-20T12:02:05;2.38;;;1.08;;
51738;SDS011;37815;52.692;6.226;2022-08-20T12:07:10;3.15;;;0.98;;
51738;SDS011;37815;52.692;6.226;2022-08-20T12:12:12;3.47;;;1.05;;
51738;SDS011;37815;52.692;6.226;2022-08-20T12:17:16;7.22;;;1.20;;
51738;SDS011;37815;52.692;6.226;2022-08-20T12:22:20;3.72;;;0.95;;
51738;SDS011;37815;52.692;6.226;2022-08-20T12:32:25;4.13;;;1.15;;
51738;SDS011;37815;52.692;6.226;2022-08-20T12:37:28;3.55;;;1.20;;
51738;SDS011;37815;52.692;6.226;2022-08-20T12:42:30;6.65;;;2.08;;
51738;SDS011;37815;52.692;6.226;2022-08-20T12:47:32;3.30;;;0.95;;
51738;SDS011;37815;52.692;6.226;2022-08-20T12:52:35;4.78;;;1.20;;
51738;SDS011;37815;52.692;6.226;2022-08-20T12:57:37;5.20;;;1.25;;
51738;SDS011;37815;52.692;6.226;2022-08-20T13:02:42;3.50;;;1.23;;
51738;SDS011;37815;52.692;6.226;2022-08-20T13:07:44;5.47;;;1.33;;
51738;SDS011;37815;52.692;6.226;2022-08-20T13:12:45;2.72;;;1.20;;
51738;SDS011;37815;52.692;6.226;2022-08-20T13:17:50;3.78;;;1.23;;
51738;SDS011;37815;52.692;6.226;2022-08-20T13:22:52;5.55;;;1.38;;
51738;SDS011;37815;52.692;6.226;2022-08-20T13:27:54;4.13;;;1.42;;
51738;SDS011;37815;52.692;6.226;2022-08-20T13:32:56;3.58;;;1.30;;
51738;SDS011;37815;52.692;6.226;2022-08-20T13:37:57;4.68;;;2.47;;
51738;SDS011;37815;52.692;6.226;2022-08-20T13:42:58;3.65;;;1.10;;
51738;SDS011;37815;52.692;6.226;2022-08-20T13:47:59;3.15;;;1.52;;
51738;SDS011;37815;52.692;6.226;2022-08-20T13:53:00;3.55;;;1.13;;
51738;SDS011;37815;52.692;6.226;2022-08-20T13:58:05;4.85;;;1.30;;
51738;SDS011;37815;52.692;6.226;2022-08-20T14:03:06;4.53;;;1.50;;
51738;SDS011;37815;52.692;6.226;2022-08-20T14:08:09;5.45;;;1.58;;
51738;SDS011;37815;52.692;6.226;2022-08-20T14:13:12;6.65;;;1.48;;
51738;SDS011;37815;52.692;6.226;2022-08-20T14:18:13;2.97;;;1.40;;
51738;SDS011;37815;52.692;6.226;2022-08-20T14:23:15;5.18;;;1.52;;
51738;SDS011;37815;52.692;6.226;2022-08-20T14:28:21;5.35;;;1.30;;
51738;SDS011;37815;52.692;6.226;2022-08-20T14:33:23;7.50;;;1.83;;
51738;SDS011;37815;52.692;6.226;2022-08-20T14:38:44;3.35;;;1.30;;
51738;SDS011;37815;52.692;6.226;2022-08-20T14:43:45;7.70;;;2.03;;
51738;SDS011;37815;52.692;6.226;2022-08-20T14:48:46;4.15;;;1.40;;
51738;SDS011;37815;52.692;6.226;2022-08-20T14:53:46;5.13;;;1.52;;
51738;SDS011;37815;52.692;6.226;2022-08-20T14:58:47;2.35;;;1.30;;
51738;SDS011;37815;52.692;6.226;2022-08-20T15:03:48;4.25;;;1.60;;
51738;SDS011;37815;52.692;6.226;2022-08-20T15:08:48;5.60;;;2.03;;
51738;SDS011;37815;52.692;6.226;2022-08-20T15:13:49;3.92;;;1.27;;
51738;SDS011;37815;52.692;6.226;2022-08-20T15:18:53;3.38;;;1.42;;
51738;SDS011;37815;52.692;6.226;2022-08-20T15:23:53;4.90;;;1.67;;
51738;SDS011;37815;52.692;6.226;2022-08-20T15:28:54;1.67;;;1.20;;
51738;SDS011;37815;52.692;6.226;2022-08-20T15:33:55;3.28;;;1.38;;
51738;SDS011;37815;52.692;6.226;2022-08-20T15:38:56;2.40;;;1.45;;
51738;SDS011;37815;52.692;6.226;2022-08-20T15:43:57;3.30;;;1.50;;
51738;SDS011;37815;52.692;6.226;2022-08-20T15:48:57;3.20;;;1.20;;
51738;SDS011;37815;52.692;6.226;2022-08-20T16:11:11;2.17;;;1.40;;
51738;SDS011;37815;52.692;6.226;2022-08-20T16:15:42;2.90;;;1.53;;
51738;SDS011;37815;52.692;6.226;2022-08-20T16:20:46;3.55;;;1.48;;
51738;SDS011;37815;52.692;6.226;2022-08-20T16:31:11;1.92;;;1.25;;
51738;SDS011;37815;52.692;6.226;2022-08-20T16:41:58;2.42;;;1.30;;
51738;SDS011;37815;52.692;6.226;2022-08-20T16:47:02;3.20;;;1.70;;
51738;SDS011;37815;52.692;6.226;2022-08-20T16:52:19;3.65;;;1.40;;
51738;SDS011;37815;52.692;6.226;2022-08-20T16:57:20;2.63;;;1.58;;
51738;SDS011;37815;52.692;6.226;2022-08-20T17:02:21;5.45;;;1.48;;
51738;SDS011;37815;52.692;6.226;2022-08-20T17:07:26;3.03;;;1.45;;
51738;SDS011;37815;52.692;6.226;2022-08-20T17:12:38;3.40;;;1.70;;
51738;SDS011;37815;52.692;6.226;2022-08-20T17:17:39;2.42;;;1.42;;
51738;SDS011;37815;52.692;6.226;2022-08-20T17:22:50;1.48;;;1.25;;
51738;SDS011;37815;52.692;6.226;2022-08-20T17:27:52;2.10;;;1.42;;
51738;SDS011;37815;52.692;6.226;2022-08-20T17:32:55;2.35;;;1.30;;
51738;SDS011;37815;52.692;6.226;2022-08-20T17:37:58;3.88;;;1.60;;
51738;SDS011;37815;52.692;6.226;2022-08-20T17:43:02;2.88;;;1.60;;
51738;SDS011;37815;52.692;6.226;2022-08-20T17:48:06;3.13;;;1.40;;
51738;SDS011;37815;52.692;6.226;2022-08-20T17:58:33;2.38;;;1.50;;
51738;SDS011;37815;52.692;6.226;2022-08-20T18:03:39;2.70;;;1.40;;
51738;SDS011;37815;52.692;6.226;2022-08-20T18:08:47;1.70;;;1.25;;
51738;SDS011;37815;52.692;6.226;2022-08-20T18:19:30;2.53;;;1.50;;
51738;SDS011;37815;52.692;6.226;2022-08-20T18:29:42;3.25;;;1.35;;
51738;SDS011;37815;52.692;6.226;2022-08-20T18:34:44;2.17;;;1.40;;
51738;SDS011;37815;52.692;6.226;2022-08-20T18:39:47;3.20;;;1.33;;
51738;SDS011;37815;52.692;6.226;2022-08-20T18:44:50;3.08;;;1.40;;
51738;SDS011;37815;52.692;6.226;2022-08-20T19:11:02;3.20;;;1.52;;
51738;SDS011;37815;52.692;6.226;2022-08-20T19:16:33;3.50;;;1.50;;
51738;SDS011;37815;52.692;6.226;2022-08-20T19:21:38;2.80;;;1.50;;
51738;SDS011;37815;52.692;6.226;2022-08-20T19:26:45;3.42;;;1.40;;
51738;SDS011;37815;52.692;6.226;2022-08-20T19:31:55;4.07;;;1.55;;
51738;SDS011;37815;52.692;6.226;2022-08-20T19:37:05;2.42;;;1.45;;
51738;SDS011;37815;52.692;6.226;2022-08-20T19:42:15;2.63;;;1.40;;
51738;SDS011;37815;52.692;6.226;2022-08-20T19:47:31;2.60;;;1.35;;
51738;SDS011;37815;52.692;6.226;2022-08-20T19:53:13;3.08;;;1.40;;
51738;SDS011;37815;52.692;6.226;2022-08-20T19:58:18;2.30;;;1.48;;
51738;SDS011;37815;52.692;6.226;2022-08-20T20:03:21;3.15;;;1.30;;
51738;SDS011;37815;52.692;6.226;2022-08-20T20:08:44;4.43;;;1.50;;
51738;SDS011;37815;52.692;6.226;2022-08-20T20:14:01;5.57;;;1.55;;
51738;SDS011;37815;52.692;6.226;2022-08-20T20:19:05;4.38;;;1.67;;
51738;SDS011;37815;52.692;6.226;2022-08-20T20:24:09;4.53;;;1.52;;
51738;SDS011;37815;52.692;6.226;2022-08-20T20:29:23;4.03;;;1.92;;
51738;SDS011;37815;52.692;6.226;2022-08-20T20:34:27;4.95;;;1.88;;
51738;SDS011;37815;52.692;6.226;2022-08-20T20:39:34;2.58;;;1.58;;
51738;SDS011;37815;52.692;6.226;2022-08-20T20:44:38;3.03;;;1.40;;
51738;SDS011;37815;52.692;6.226;2022-08-20T20:49:47;4.03;;;1.30;;
51738;SDS011;37815;52.692;6.226;2022-08-20T20:54:48;3.00;;;1.58;;
51738;SDS011;37815;52.692;6.226;2022-08-20T20:59:50;1.30;;;1.20;;
51738;SDS011;37815;52.692;6.226;2022-08-20T21:04:51;2.35;;;1.20;;
51738;SDS011;37815;52.692;6.226;2022-08-20T21:09:53;3.58;;;1.60;;
51738;SDS011;37815;52.692;6.226;2022-08-20T21:14:55;1.92;;;1.23;;
51738;SDS011;37815;52.692;6.226;2022-08-20T21:19:56;3.40;;;1.67;;
51738;SDS011;37815;52.692;6.226;2022-08-20T21:24:59;5.05;;;1.58;;
51738;SDS011;37815;52.692;6.226;2022-08-20T21:30:03;2.92;;;1.48;;
51738;SDS011;37815;52.692;6.226;2022-08-20T21:35:04;4.10;;;1.70;;
51738;SDS011;37815;52.692;6.226;2022-08-20T21:40:06;2.03;;;1.52;;
51738;SDS011;37815;52.692;6.226;2022-08-20T21:45:10;3.28;;;1.70;;
51738;SDS011;37815;52.692;6.226;2022-08-20T21:50:13;5.35;;;1.90;;
51738;SDS011;37815;52.692;6.226;2022-08-20T21:55:15;3.67;;;1.80;;
51738;SDS011;37815;52.692;6.226;2022-08-20T22:00:19;3.28;;;1.70;;
51738;SDS011;37815;52.692;6.226;2022-08-20T22:05:49;2.50;;;1.52;;
51738;SDS011;37815;52.692;6.226;2022-08-20T22:10:50;4.43;;;1.70;;
51738;SDS011;37815;52.692;6.226;2022-08-20T22:15:54;2.42;;;1.60;;
51738;SDS011;37815;52.692;6.226;2022-08-20T22:20:54;2.83;;;1.70;;
51738;SDS011;37815;52.692;6.226;2022-08-20T22:25:55;3.13;;;1.88;;
51738;SDS011;37815;52.692;6.226;2022-08-20T22:30:56;2.90;;;1.75;;
51738;SDS011;37815;52.692;6.226;2022-08-20T22:35:57;2.63;;;1.70;;
51738;SDS011;37815;52.692;6.226;2022-08-20T22:40:58;3.80;;;1.80;;
51738;SDS011;37815;52.692;6.226;2022-08-20T22:46:00;3.67;;;1.80;;
51738;SDS011;37815;52.692;6.226;2022-08-20T22:51:01;2.58;;;2.03;;
51738;SDS011;37815;52.692;6.226;2022-08-20T22:56:02;4.22;;;1.90;;
51738;SDS011;37815;52.692;6.226;2022-08-20T23:01:03;3.60;;;2.35;;
51738;SDS011;37815;52.692;6.226;2022-08-20T23:06:04;2.60;;;1.70;;
51738;SDS011;37815;52.692;6.226;2022-08-20T23:11:06;2.60;;;1.80;;
51738;SDS011;37815;52.692;6.226;2022-08-20T23:16:08;2.75;;;1.77;;
51738;SDS011;37815;52.692;6.226;2022-08-20T23:21:09;3.10;;;1.63;;
51738;SDS011;37815;52.692;6.226;2022-08-20T23:26:10;3.33;;;1.77;;
51738;SDS011;37815;52.692;6.226;2022-08-20T23:31:14;3.35;;;1.75;;
51738;SDS011;37815;52.692;6.226;2022-08-20T23:36:15;5.25;;;1.80;;
51738;SDS011;37815;52.692;6.226;2022-08-20T23:41:17;2.45;;;1.95;;
51738;SDS011;37815;52.692;6.226;2022-08-20T23:46:19;5.10;;;2.03;;
51738;SDS011;37815;52.692;6.226;2022-08-20T23:51:22;4.00;;;1.98;;
51738;SDS011;37815;52.692;6.226;2022-08-20T23:56:23;1.70;;;1.60;;
